Airfield :
LOGIN :

Register | Disclaimer

   EN    FR    IT 

 










Legend :    VFR   Marginal VFR   IFR   Intensive IFR   Very Intensive IFR
Visi :
Ceiling :
>= 8 km
>= 3000ft
5 to 8 km
1000 to 3000 ft
1500m to 5 km
500 to 1000 ft
800 to 1500m
200 to 500 ft
< 800m
< 200 ft
Symbols :   Thunderstorms  Fog  Heavy snow  Heavy precipitations  Wind > 20 kt
SIGMETs :     Misc.  Thunderstorms  Icing  Turbulence  Mountain Waves  Volcanic Ashes






- Airport Elevation : 49 ft
- IATA code : AOI


LIPY - Ancona Falconara

CURRENT METAR :
  • 280020Z AUTO 20003KT 9999 NCD 11/08 Q1027

EXPIRED METARs :
  • 272350Z AUTO 18003KT 9999 NCD 11/08 Q1027
  • 272320Z AUTO 18003KT 9999 NCD 12/08 Q1027
  • 272250Z AUTO 19003KT 9999 NCD 12/08 Q1027
  • 272220Z AUTO 19003KT 9999 NCD 13/08 Q1028
  • 272150Z AUTO 19003KT 9999 NCD 13/08 Q1027

TAF TAF LIPY
Valid from the 28 at 00:00 until the 29 at 00:00 UTC


272300Z 2800/2824 24006KT 9999 FEW030
BECMG 2810/2812 06010KT



MET'MAP, your aeronautical weather chart ! - Copyright ORBIFLY December 2007 - Disclaimer

ORBIFLY MET'MAP TEAM :

Programming & Development : Alexandra Zaïnal
Concept & original design : Baudouin d'Aumeries
Assistance for programming : Marc-Olivier Méhu
Technical & hardware support : Manuel Goepfert

Contact : metmap@orbifly.com




SOURCES & CREDITS :

   NOAA